EMY weather

El Minya Airport
Minya, Minya Governorate, Egypt

Public forecast

Using degrees Celsius for public forecast. Weather courtesy of forecast.io.

METAR (pilot weather report)

Closest report is Assiut International Airport, 65.1 nm (120.5 km) SSE. Retrieved 2019/05/21 04:00 UTC (60 minutes ago):

HEAT 210400Z 36010KT CAVOK 23/10 Q1013 NOSIG

TAF (pilot weather forecast)

Forecast is more than 12 hours old.

Closest forecast is Assiut International Airport, 65.1 nm (120.5 km) SSE. Retrieved 2019/05/20 00:00 UTC (1 day ago):

TAF HEAT 202300Z 2100/2206 30014KT CAVOK